createdAt,value
2019-05-01T00:00:45.241Z,10.80
2019-05-01T00:02:02.534Z,10.80
2019-05-01T00:03:13.433Z,10.80
2019-05-01T00:04:21.735Z,10.70
2019-05-01T00:05:39.282Z,10.60
2019-05-01T00:06:44.637Z,10.60
2019-05-01T00:07:48.216Z,10.50
2019-05-01T00:08:51.846Z,10.50
2019-05-01T00:09:55.687Z,10.40
2019-05-01T00:10:59.271Z,10.40
2019-05-01T00:12:02.882Z,10.40
2019-05-01T00:13:06.959Z,10.40
2019-05-01T00:14:10.770Z,10.40
2019-05-01T00:15:14.613Z,10.50
2019-05-01T00:16:18.255Z,10.50
2019-05-01T00:17:22.553Z,10.50
2019-05-01T00:18:26.193Z,10.50
2019-05-01T00:19:29.831Z,10.50
2019-05-01T00:20:33.426Z,10.50
2019-05-01T00:21:36.993Z,10.50
2019-05-01T00:22:40.561Z,10.50
2019-05-01T00:23:44.133Z,10.50
2019-05-01T00:24:47.746Z,10.50
2019-05-01T00:25:51.310Z,10.50
2019-05-01T00:26:54.886Z,10.50
2019-05-01T00:27:58.451Z,10.60
2019-05-01T00:29:02.090Z,10.60
2019-05-01T00:30:08.578Z,10.60
2019-05-01T00:31:12.229Z,10.50
2019-05-01T00:32:15.836Z,10.50
2019-05-01T00:33:19.395Z,10.40
2019-05-01T00:34:22.988Z,10.40
2019-05-01T00:35:26.542Z,10.50
2019-05-01T00:36:30.115Z,10.50
2019-05-01T00:37:33.711Z,10.50
2019-05-01T00:38:37.282Z,10.50
2019-05-01T00:39:40.850Z,10.60
2019-05-01T00:40:44.563Z,10.70
2019-05-01T00:41:48.238Z,10.70
2019-05-01T00:42:51.805Z,10.70
2019-05-01T00:43:55.370Z,10.70
2019-05-01T00:44:58.938Z,10.80
2019-05-01T00:46:02.547Z,10.80
2019-05-01T00:47:06.114Z,10.80
2019-05-01T00:48:09.710Z,10.80
2019-05-01T00:49:13.285Z,10.80
2019-05-01T00:50:16.926Z,10.80
2019-05-01T00:51:20.530Z,10.80
2019-05-01T00:52:24.098Z,10.80
2019-05-01T00:53:27.679Z,10.90
2019-05-01T00:54:32.950Z,10.90
2019-05-01T00:55:54.479Z,10.90
2019-05-01T00:57:08.973Z,11.00
2019-05-01T00:58:23.215Z,11.00
2019-05-01T00:59:37.316Z,11.00
2019-05-01T01:00:58.630Z,11.00
2019-05-01T01:02:06.646Z,11.00
2019-05-01T01:03:10.269Z,10.90
2019-05-01T01:04:15.401Z,10.90
2019-05-01T01:05:18.967Z,10.90
2019-05-01T01:06:22.542Z,10.80
2019-05-01T01:07:26.145Z,10.70
2019-05-01T01:08:29.709Z,10.70
2019-05-01T01:09:33.275Z,10.60
2019-05-01T01:10:36.839Z,10.60
2019-05-01T01:11:40.402Z,10.50
2019-05-01T01:12:44.069Z,10.40
2019-05-01T01:13:47.638Z,10.40
2019-05-01T01:14:51.270Z,10.40
2019-05-01T01:15:54.979Z,10.40
2019-05-01T01:16:58.542Z,10.40
2019-05-01T01:18:02.115Z,10.40
2019-05-01T01:19:05.682Z,10.50
2019-05-01T01:20:09.345Z,10.50
2019-05-01T01:21:12.920Z,10.60
2019-05-01T01:22:16.490Z,10.60
2019-05-01T01:23:20.226Z,10.70
2019-05-01T01:24:23.839Z,10.70
2019-05-01T01:25:27.403Z,10.70
2019-05-01T01:26:31.051Z,10.70
2019-05-01T01:27:34.681Z,10.70
2019-05-01T01:28:38.360Z,10.70
2019-05-01T01:29:42.002Z,10.80
2019-05-01T01:30:55.588Z,10.80
2019-05-01T01:31:50.934Z,10.80
2019-05-01T01:32:54.651Z,10.90
2019-05-01T01:33:58.247Z,10.80
2019-05-01T01:35:01.815Z,10.90
2019-05-01T01:36:05.454Z,10.90
2019-05-01T01:37:09.037Z,10.90
2019-05-01T01:38:12.706Z,10.90
2019-05-01T01:39:16.270Z,10.90
2019-05-01T01:40:19.910Z,10.90
2019-05-01T01:41:23.922Z,10.90
2019-05-01T01:42:27.832Z,10.90
2019-05-01T01:43:36.362Z,10.80
2019-05-01T01:44:41.638Z,10.80
2019-05-01T01:45:46.848Z,10.80
2019-05-01T01:46:52.402Z,10.90
2019-05-01T01:48:09.679Z,10.90
2019-05-01T01:49:13.813Z,10.80
2019-05-01T01:50:17.378Z,10.80
2019-05-01T01:51:21.412Z,10.80
2019-05-01T01:52:25.785Z,10.90
2019-05-01T01:53:29.527Z,10.90
2019-05-01T01:54:33.629Z,10.90
2019-05-01T01:55:38.127Z,10.90
2019-05-01T01:56:41.942Z,10.90
2019-05-01T01:57:45.622Z,10.90
2019-05-01T01:58:49.934Z,10.80
2019-05-01T01:59:54.138Z,10.80
2019-05-01T02:01:11.791Z,10.80
2019-05-01T02:02:32.945Z,10.80
2019-05-01T02:03:41.255Z,10.80
2019-05-01T02:04:46.538Z,10.80
2019-05-01T02:05:50.274Z,10.80
2019-05-01T02:06:53.853Z,10.80
2019-05-01T02:07:57.530Z,10.80
2019-05-01T02:09:01.097Z,10.90
2019-05-01T02:10:06.324Z,10.90
2019-05-01T02:11:09.957Z,10.90
2019-05-01T02:12:14.258Z,10.90
2019-05-01T02:13:17.899Z,10.90
2019-05-01T02:14:21.533Z,10.90
2019-05-01T02:15:25.103Z,10.90
2019-05-01T02:16:28.777Z,10.80
2019-05-01T02:17:32.346Z,10.80
2019-05-01T02:18:36.021Z,10.80
2019-05-01T02:19:39.589Z,10.80
2019-05-01T02:20:43.504Z,10.90
2019-05-01T02:21:47.063Z,10.90
2019-05-01T02:22:50.728Z,10.90
2019-05-01T02:23:54.357Z,10.90
2019-05-01T02:24:57.917Z,11.00
2019-05-01T02:26:02.131Z,11.00
2019-05-01T02:27:13.138Z,11.00
2019-05-01T02:28:36.534Z,11.00
2019-05-01T02:29:44.778Z,11.00
2019-05-01T02:30:50.057Z,11.00
2019-05-01T02:31:55.440Z,11.00
2019-05-01T02:33:00.042Z,11.00
2019-05-01T02:34:04.149Z,11.00
2019-05-01T02:35:08.391Z,11.00
2019-05-01T02:36:13.941Z,11.00
2019-05-01T02:37:18.160Z,11.10
2019-05-01T02:38:21.859Z,11.00
2019-05-01T02:39:26.585Z,11.00
2019-05-01T02:40:51.173Z,11.10
2019-05-01T02:41:57.750Z,11.00
2019-05-01T02:43:02.678Z,11.10
2019-05-01T02:44:12.075Z,11.10
2019-05-01T02:45:16.113Z,11.10
2019-05-01T02:46:21.191Z,11.10
2019-05-01T02:47:27.826Z,11.10
2019-05-01T02:48:34.220Z,11.10
2019-05-01T02:49:52.556Z,11.00
2019-05-01T02:50:59.192Z,11.10
2019-05-01T02:52:04.602Z,11.10
2019-05-01T02:53:08.540Z,11.10
2019-05-01T02:54:14.039Z,11.10
2019-05-01T02:55:19.500Z,11.00
2019-05-01T02:56:25.787Z,11.00
2019-05-01T02:57:31.395Z,11.10
2019-05-01T02:58:35.199Z,11.10
2019-05-01T02:59:41.844Z,11.00
2019-05-01T03:00:45.645Z,11.10
2019-05-01T03:01:50.203Z,11.10
2019-05-01T03:02:54.517Z,11.10
2019-05-01T03:03:58.830Z,11.20
2019-05-01T03:05:02.952Z,11.20
2019-05-01T03:06:06.758Z,11.30
2019-05-01T03:07:10.825Z,11.30
2019-05-01T03:08:14.374Z,11.30
2019-05-01T03:09:18.779Z,11.30
2019-05-01T03:10:23.382Z,11.40
2019-05-01T03:11:28.391Z,11.30
2019-05-01T03:12:35.012Z,11.30
2019-05-01T03:13:40.727Z,11.20
2019-05-01T03:14:47.526Z,11.20
2019-05-01T03:15:51.440Z,11.20
2019-05-01T03:16:57.916Z,11.20
2019-05-01T03:18:06.569Z,11.30
2019-05-01T03:19:16.592Z,11.20
2019-05-01T03:20:34.055Z,11.30
2019-05-01T03:21:54.383Z,11.30
2019-05-01T03:23:03.442Z,11.30
2019-05-01T03:24:11.515Z,11.30
2019-05-01T03:25:15.438Z,11.30
2019-05-01T03:26:19.671Z,11.30
2019-05-01T03:27:23.351Z,11.30
2019-05-01T03:28:27.102Z,11.20
2019-05-01T03:29:31.320Z,11.10
2019-05-01T03:30:35.229Z,11.20
2019-05-01T03:31:39.141Z,11.20
2019-05-01T03:32:42.746Z,11.10
2019-05-01T03:33:46.691Z,11.10
2019-05-01T03:34:52.564Z,11.10
2019-05-01T03:35:55.516Z,11.10
2019-05-01T03:36:59.811Z,11.10
2019-05-01T03:38:03.652Z,11.10
2019-05-01T03:39:07.293Z,11.20
2019-05-01T03:40:12.494Z,11.20
2019-05-01T03:41:16.435Z,11.20
2019-05-01T03:42:20.107Z,11.10
2019-05-01T03:43:24.515Z,11.20
2019-05-01T03:44:28.083Z,11.20
2019-05-01T03:45:34.150Z,11.10
2019-05-01T03:46:37.365Z,11.10
2019-05-01T03:47:41.736Z,11.10
2019-05-01T03:48:45.361Z,11.10
2019-05-01T03:49:49.002Z,11.10
2019-05-01T03:50:53.312Z,11.10
2019-05-01T03:51:57.617Z,11.10
2019-05-01T03:53:01.662Z,11.20
2019-05-01T03:54:05.375Z,11.10
2019-05-01T03:55:08.942Z,11.10
2019-05-01T03:56:13.117Z,11.10
2019-05-01T03:57:16.751Z,11.10
2019-05-01T03:58:20.551Z,11.10
2019-05-01T03:59:24.561Z,11.10
2019-05-01T04:00:35.734Z,11.10
2019-05-01T04:01:57.252Z,11.00
2019-05-01T04:03:20.692Z,11.10
2019-05-01T04:04:25.970Z,11.00
2019-05-01T04:05:29.549Z,10.90
2019-05-01T04:06:33.250Z,10.90
2019-05-01T04:07:37.313Z,10.90
2019-05-01T04:08:41.114Z,10.90
2019-05-01T04:09:44.754Z,10.90
2019-05-01T04:10:49.061Z,10.80
2019-05-01T04:11:52.771Z,10.80
2019-05-01T04:12:56.524Z,10.90
2019-05-01T04:14:00.161Z,10.90
2019-05-01T04:15:04.972Z,10.90
2019-05-01T04:16:09.311Z,10.90
2019-05-01T04:17:30.975Z,10.80
2019-05-01T04:18:34.739Z,10.80
2019-05-01T04:19:39.295Z,10.80
2019-05-01T04:20:42.852Z,10.90
2019-05-01T04:21:48.895Z,10.90
2019-05-01T04:22:52.619Z,10.90
2019-05-01T04:23:56.868Z,11.00
2019-05-01T04:25:00.647Z,10.90
2019-05-01T04:26:04.291Z,10.90
2019-05-01T04:27:09.701Z,10.90
2019-05-01T04:28:24.984Z,10.90
2019-05-01T04:29:30.203Z,10.90
2019-05-01T04:30:38.453Z,11.00
2019-05-01T04:31:59.051Z,11.00
2019-05-01T04:33:04.331Z,11.10
2019-05-01T04:34:10.894Z,11.00
2019-05-01T04:35:16.283Z,11.00
2019-05-01T04:36:21.562Z,11.10
2019-05-01T04:37:26.074Z,11.10
2019-05-01T04:38:30.084Z,11.10
2019-05-01T04:39:34.120Z,11.10
2019-05-01T04:40:37.867Z,11.10
2019-05-01T04:41:41.564Z,11.10
2019-05-01T04:42:45.503Z,11.20
2019-05-01T04:43:49.138Z,11.20
2019-05-01T04:44:52.830Z,11.20
2019-05-01T04:45:57.269Z,11.20
2019-05-01T04:47:01.314Z,11.20
2019-05-01T04:48:05.400Z,11.20
2019-05-01T04:49:09.102Z,11.20
2019-05-01T04:50:12.964Z,11.20
2019-05-01T04:51:16.868Z,11.10
2019-05-01T04:52:20.794Z,11.10
2019-05-01T04:53:24.910Z,11.10
2019-05-01T04:54:28.638Z,11.10
2019-05-01T04:55:32.687Z,11.20
2019-05-01T04:56:36.386Z,11.10
2019-05-01T04:57:41.029Z,11.10
2019-05-01T04:58:44.661Z,11.10
2019-05-01T04:59:48.297Z,11.10
2019-05-01T05:00:52.051Z,11.10
2019-05-01T05:01:59.859Z,11.10
2019-05-01T05:03:05.597Z,11.10
2019-05-01T05:04:09.314Z,11.10
2019-05-01T05:05:13.128Z,11.10
2019-05-01T05:06:17.079Z,11.10
2019-05-01T05:07:20.913Z,11.20
2019-05-01T05:08:24.479Z,11.20
2019-05-01T05:09:44.754Z,11.20
2019-05-01T05:10:49.662Z,11.20
2019-05-01T05:11:55.045Z,11.20
2019-05-01T05:13:06.224Z,11.20
2019-05-01T05:14:14.218Z,11.10
2019-05-01T05:15:22.689Z,11.10
2019-05-01T05:16:34.238Z,11.10
2019-05-01T05:17:37.843Z,11.10
2019-05-01T05:18:41.553Z,11.10
2019-05-01T05:19:45.389Z,11.10
2019-05-01T05:20:49.618Z,11.20
2019-05-01T05:21:53.471Z,11.20
2019-05-01T05:22:57.191Z,11.10
2019-05-01T05:24:00.823Z,11.20
2019-05-01T05:25:05.529Z,11.20
2019-05-01T05:26:09.440Z,11.10
2019-05-01T05:27:13.797Z,11.00
2019-05-01T05:28:17.654Z,11.00
2019-05-01T05:29:23.190Z,10.90
2019-05-01T05:30:29.242Z,10.80
2019-05-01T05:31:34.154Z,10.80
2019-05-01T05:32:40.167Z,10.90
2019-05-01T05:33:46.276Z,10.90
2019-05-01T05:34:53.087Z,10.90
2019-05-01T05:35:58.393Z,10.90
2019-05-01T05:37:05.407Z,11.00
2019-05-01T05:38:23.265Z,11.00
2019-05-01T05:39:32.104Z,11.00
2019-05-01T05:40:37.661Z,11.10
2019-05-01T05:41:42.727Z,11.10
2019-05-01T05:42:46.534Z,11.10
2019-05-01T05:43:50.171Z,11.10
2019-05-01T05:44:54.173Z,11.20
2019-05-01T05:45:57.890Z,11.20
2019-05-01T05:47:01.502Z,11.30
2019-05-01T05:48:05.162Z,11.20
2019-05-01T05:49:08.939Z,11.10
2019-05-01T05:50:14.909Z,11.20
2019-05-01T05:51:23.566Z,11.30
2019-05-01T05:52:40.170Z,11.30
2019-05-01T05:53:55.618Z,11.40
2019-05-01T05:55:18.991Z,11.30
2019-05-01T05:56:27.211Z,11.30
2019-05-01T05:57:39.305Z,11.40
2019-05-01T05:58:47.502Z,11.30
2019-05-01T06:00:13.401Z,11.40
2019-05-01T06:01:28.639Z,11.40
2019-05-01T06:02:36.159Z,11.50
2019-05-01T06:04:01.875Z,11.50
2019-05-01T06:05:23.721Z,11.50
2019-05-01T06:06:45.193Z,11.60
2019-05-01T06:08:08.671Z,11.50
2019-05-01T06:09:15.631Z,11.60
2019-05-01T06:10:30.866Z,11.60
2019-05-01T06:11:45.880Z,11.60
2019-05-01T06:12:58.008Z,11.60
2019-05-01T06:14:12.874Z,11.70
2019-05-01T06:15:23.767Z,11.70
2019-05-01T06:16:31.211Z,11.70
2019-05-01T06:17:36.490Z,11.80
2019-05-01T06:18:44.288Z,11.90
2019-05-01T06:19:50.003Z,11.90
2019-05-01T06:20:57.118Z,12.00
2019-05-01T06:22:19.764Z,12.00
2019-05-01T06:23:34.237Z,12.10
2019-05-01T06:24:48.795Z,12.20
2019-05-01T06:26:00.233Z,12.20
2019-05-01T06:27:02.518Z,12.30
2019-05-01T06:28:06.166Z,12.30
2019-05-01T06:29:09.729Z,12.20
2019-05-01T06:30:13.450Z,12.30
2019-05-01T06:31:22.921Z,12.40
2019-05-01T06:32:23.818Z,12.30
2019-05-01T06:33:27.391Z,12.30
2019-05-01T06:34:31.295Z,12.30
2019-05-01T06:35:38.090Z,12.40
2019-05-01T06:36:44.433Z,12.40
2019-05-01T06:38:06.738Z,12.50
2019-05-01T06:39:11.989Z,12.40
2019-05-01T06:40:18.797Z,12.50
2019-05-01T06:41:23.187Z,12.60
2019-05-01T06:42:26.755Z,12.60
2019-05-01T06:43:35.258Z,12.70
2019-05-01T06:44:50.619Z,12.70
2019-05-01T06:46:13.838Z,12.70
2019-05-01T06:47:31.650Z,12.80
2019-05-01T06:48:36.863Z,12.90
2019-05-01T06:50:01.125Z,12.90
2019-05-01T06:51:21.270Z,12.90
2019-05-01T06:52:29.329Z,12.90
2019-05-01T06:53:31.265Z,12.80
2019-05-01T06:54:36.279Z,12.80
2019-05-01T06:55:40.064Z,12.70
2019-05-01T06:56:44.787Z,12.60
2019-05-01T06:57:48.524Z,12.40
2019-05-01T06:58:55.230Z,12.50
2019-05-01T07:00:03.349Z,12.60
2019-05-01T07:01:04.966Z,12.60
2019-05-01T07:02:11.658Z,12.70
2019-05-01T07:03:15.504Z,12.70
2019-05-01T07:04:19.863Z,12.60
2019-05-01T07:05:24.570Z,12.70
2019-05-01T07:06:31.196Z,12.60
2019-05-01T07:07:33.866Z,12.70
2019-05-01T07:08:39.580Z,12.70
2019-05-01T07:09:48.950Z,12.70
2019-05-01T07:10:49.455Z,12.80
2019-05-01T07:11:54.571Z,12.80
2019-05-01T07:13:04.963Z,12.80
2019-05-01T07:14:11.231Z,12.80
2019-05-01T07:15:13.350Z,12.80
2019-05-01T07:16:16.923Z,12.80
2019-05-01T07:17:20.900Z,12.90
2019-05-01T07:18:28.874Z,12.90
2019-05-01T07:19:48.199Z,12.90
2019-05-01T07:20:53.420Z,13.00
2019-05-01T07:21:57.165Z,13.10
2019-05-01T07:23:00.734Z,13.10
2019-05-01T07:24:04.783Z,13.10
2019-05-01T07:25:09.198Z,13.10
2019-05-01T07:26:13.675Z,13.10
2019-05-01T07:27:18.882Z,13.20
2019-05-01T07:28:23.806Z,13.00
2019-05-01T07:29:29.047Z,12.80
2019-05-01T07:30:34.365Z,12.80
2019-05-01T07:31:38.079Z,12.80
2019-05-01T07:32:42.774Z,12.90
2019-05-01T07:33:51.112Z,13.00
2019-05-01T07:34:56.854Z,13.10
2019-05-01T07:35:58.636Z,13.30
2019-05-01T07:37:02.614Z,13.40
2019-05-01T07:38:06.450Z,13.40
2019-05-01T07:39:14.767Z,13.30
2019-05-01T07:40:15.718Z,13.30
2019-05-01T07:41:19.328Z,13.40
2019-05-01T07:42:27.522Z,13.40
2019-05-01T07:43:33.145Z,13.50
2019-05-01T07:44:44.482Z,13.50
2019-05-01T07:45:52.990Z,13.70
2019-05-01T07:47:16.643Z,13.80
2019-05-01T07:48:23.294Z,13.80
2019-05-01T07:49:54.901Z,13.90
2019-05-01T07:51:01.945Z,14.00
2019-05-01T07:52:04.072Z,13.70
2019-05-01T07:53:07.718Z,13.70
2019-05-01T07:54:11.352Z,13.70
2019-05-01T07:55:18.606Z,13.90
2019-05-01T07:56:28.116Z,14.00
2019-05-01T07:57:29.424Z,14.20
2019-05-01T07:58:32.990Z,14.30
2019-05-01T07:59:36.700Z,14.40
2019-05-01T08:00:52.464Z,14.40
2019-05-01T08:01:57.714Z,14.50
2019-05-01T08:03:02.686Z,14.30
2019-05-01T08:04:06.506Z,14.30
2019-05-01T08:05:11.722Z,14.40
2019-05-01T08:06:16.242Z,14.40
2019-05-01T08:07:20.764Z,14.40
2019-05-01T08:08:24.329Z,14.40
2019-05-01T08:09:27.893Z,14.50
2019-05-01T08:10:33.757Z,14.60
2019-05-01T08:11:39.049Z,14.80
2019-05-01T08:12:44.855Z,14.80
2019-05-01T08:13:47.191Z,14.80
2019-05-01T08:14:52.442Z,14.80
2019-05-01T08:15:56.541Z,14.90
2019-05-01T08:17:00.146Z,14.80
2019-05-01T08:18:24.040Z,14.80
2019-05-01T08:19:29.039Z,14.70
2019-05-01T08:20:34.247Z,14.90
2019-05-01T08:21:39.456Z,14.80
2019-05-01T08:22:43.026Z,14.90
2019-05-01T08:23:47.230Z,15.00
2019-05-01T08:24:53.927Z,15.10
2019-05-01T08:25:57.061Z,15.20
2019-05-01T08:27:00.627Z,15.30
2019-05-01T08:28:09.374Z,15.40
2019-05-01T08:29:26.676Z,15.50
2019-05-01T08:30:37.449Z,15.60
2019-05-01T08:32:03.462Z,15.80
2019-05-01T08:33:09.887Z,15.80
2019-05-01T08:34:20.715Z,15.90
2019-05-01T08:35:25.597Z,15.80
2019-05-01T08:36:29.198Z,15.80
2019-05-01T08:37:32.799Z,15.70
2019-05-01T08:38:36.369Z,15.70
2019-05-01T08:39:44.161Z,15.70
2019-05-01T08:40:45.298Z,15.60
2019-05-01T08:41:48.889Z,15.70
2019-05-01T08:42:52.526Z,15.80
2019-05-01T08:43:56.098Z,15.80
2019-05-01T08:45:05.046Z,15.90
2019-05-01T08:46:11.859Z,16.00
2019-05-01T08:47:15.156Z,16.10
2019-05-01T08:48:38.596Z,16.20
2019-05-01T08:49:52.563Z,16.20
2019-05-01T08:50:59.061Z,16.10
2019-05-01T08:52:04.855Z,16.10
2019-05-01T08:53:06.669Z,16.20
2019-05-01T08:54:10.313Z,16.30
2019-05-01T08:55:13.873Z,16.30
2019-05-01T08:56:22.015Z,16.30
2019-05-01T08:57:22.662Z,16.40
2019-05-01T08:58:26.266Z,16.50
2019-05-01T08:59:29.838Z,16.60
2019-05-01T09:00:36.047Z,16.70
2019-05-01T09:01:38.729Z,16.80
2019-05-01T09:02:43.482Z,16.90
2019-05-01T09:03:49.731Z,17.00
2019-05-01T09:05:01.980Z,17.10
2019-05-01T09:05:58.994Z,17.20
2019-05-01T09:07:02.621Z,17.30
2019-05-01T09:08:06.212Z,17.30
2019-05-01T09:09:10.079Z,17.30
2019-05-01T09:10:17.032Z,17.30
2019-05-01T09:11:19.358Z,17.30
2019-05-01T09:12:23.212Z,17.40
2019-05-01T09:13:26.783Z,17.50
2019-05-01T09:14:35.074Z,17.70
2019-05-01T09:15:35.638Z,17.90
2019-05-01T09:16:39.634Z,18.00
2019-05-01T09:17:43.230Z,17.90
2019-05-01T09:18:46.807Z,17.70
2019-05-01T09:19:50.398Z,17.70
2019-05-01T09:20:55.646Z,17.90
2019-05-01T09:21:59.223Z,17.90
2019-05-01T09:23:02.873Z,18.00
2019-05-01T09:24:06.511Z,18.20
2019-05-01T09:25:11.902Z,18.30
2019-05-01T09:26:17.217Z,18.40
2019-05-01T09:27:37.785Z,18.50
2019-05-01T09:28:43.075Z,18.30
2019-05-01T09:29:51.556Z,18.40
2019-05-01T09:31:01.588Z,18.40
2019-05-01T09:32:00.592Z,18.60
2019-05-01T09:33:04.297Z,18.60
2019-05-01T09:34:09.450Z,18.70
2019-05-01T09:36:18.156Z,19.00
2019-05-01T09:37:21.742Z,19.20
2019-05-01T09:38:25.305Z,19.40
2019-05-01T09:39:29.465Z,19.40
2019-05-01T09:40:33.033Z,19.50
2019-05-01T09:41:38.367Z,19.70
2019-05-01T09:42:41.904Z,19.50
2019-05-01T09:43:45.555Z,19.40
2019-05-01T09:44:49.240Z,19.40
2019-05-01T09:45:52.842Z,19.50
2019-05-01T09:46:56.419Z,19.40
2019-05-01T09:47:59.995Z,19.40
2019-05-01T09:49:04.143Z,19.40
2019-05-01T09:50:08.664Z,19.30
2019-05-01T09:51:16.594Z,19.40
2019-05-01T09:52:23.378Z,19.50
2019-05-01T09:53:41.233Z,19.70
2019-05-01T09:54:52.398Z,19.90
2019-05-01T09:56:03.304Z,19.90
2019-05-01T09:57:05.682Z,20.10
2019-05-01T09:58:09.367Z,20.00
2019-05-01T09:59:17.471Z,20.10
2019-05-01T10:00:29.570Z,20.10
2019-05-01T10:01:33.163Z,20.10
2019-05-01T10:02:37.557Z,20.10
2019-05-01T10:03:44.790Z,20.30
2019-05-01T10:04:47.342Z,20.40
2019-05-01T10:05:50.914Z,20.60
2019-05-01T10:06:54.493Z,20.60
2019-05-01T10:08:00.182Z,20.50
2019-05-01T10:09:03.941Z,20.60
2019-05-01T10:10:07.762Z,20.70
2019-05-01T10:11:11.403Z,20.90
2019-05-01T10:12:15.014Z,21.10
2019-05-01T10:13:22.509Z,21.10
2019-05-01T10:14:23.803Z,21.20
2019-05-01T10:15:27.390Z,21.30
2019-05-01T10:16:30.999Z,21.10
2019-05-01T10:17:34.566Z,21.10
2019-05-01T10:18:38.205Z,21.10
2019-05-01T10:19:41.783Z,21.20
2019-05-01T10:20:45.398Z,21.20
2019-05-01T10:21:48.978Z,21.30
2019-05-01T10:22:52.646Z,21.30
2019-05-01T10:23:56.219Z,21.30
2019-05-01T10:24:59.786Z,21.40
2019-05-01T10:26:05.017Z,21.50
2019-05-01T10:27:10.262Z,21.60
2019-05-01T10:28:31.722Z,21.50
2019-05-01T10:29:40.055Z,21.60
2019-05-01T10:30:45.302Z,21.80
2019-05-01T10:32:06.583Z,21.90
2019-05-01T10:33:17.780Z,21.70
2019-05-01T10:34:38.625Z,21.70
2019-05-01T10:35:44.882Z,21.60
2019-05-01T10:36:54.389Z,21.60
2019-05-01T10:37:55.074Z,21.80
2019-05-01T10:38:58.647Z,21.60
2019-05-01T10:40:02.216Z,21.60
2019-05-01T10:41:09.148Z,21.70
2019-05-01T10:42:11.180Z,21.60
2019-05-01T10:43:14.919Z,21.40
2019-05-01T10:44:18.503Z,21.20
2019-05-01T10:45:22.075Z,21.10
2019-05-01T10:46:25.644Z,21.10
2019-05-01T10:47:29.214Z,21.20
2019-05-01T10:48:32.818Z,21.20
2019-05-01T10:49:36.424Z,21.40
2019-05-01T10:50:40.002Z,21.60
2019-05-01T10:51:43.677Z,21.70
2019-05-01T10:52:47.250Z,21.70
2019-05-01T10:53:50.825Z,21.60
2019-05-01T10:54:54.464Z,21.80
2019-05-01T10:55:57.975Z,21.90
2019-05-01T10:57:03.411Z,21.90
2019-05-01T10:58:06.841Z,21.70
2019-05-01T10:59:10.486Z,21.70
2019-05-01T11:00:14.667Z,21.70
2019-05-01T11:01:22.690Z,21.70
2019-05-01T11:02:26.302Z,21.60
2019-05-01T11:03:29.879Z,21.30
2019-05-01T11:04:33.450Z,21.20
2019-05-01T11:05:37.023Z,21.30
2019-05-01T11:06:40.614Z,21.60
2019-05-01T11:07:44.206Z,21.70
2019-05-01T11:08:47.845Z,21.80
2019-05-01T11:09:51.417Z,22.00
2019-05-01T11:10:55.040Z,22.20
2019-05-01T11:11:58.683Z,22.20
2019-05-01T11:13:02.254Z,22.30
2019-05-01T11:14:05.974Z,22.20
2019-05-01T11:15:10.677Z,22.30
2019-05-01T11:16:14.295Z,22.40
2019-05-01T11:17:17.870Z,22.40
2019-05-01T11:18:21.447Z,22.40
2019-05-01T11:19:25.046Z,22.50
2019-05-01T11:20:28.623Z,22.50
2019-05-01T11:21:32.190Z,22.50
2019-05-01T11:22:35.776Z,22.60
2019-05-01T11:23:39.350Z,22.30
2019-05-01T11:24:42.965Z,22.00
2019-05-01T11:25:49.772Z,21.70
2019-05-01T11:26:53.341Z,21.30
2019-05-01T11:27:57.194Z,21.10
2019-05-01T11:29:00.794Z,21.00
2019-05-01T11:30:06.780Z,21.10
2019-05-01T11:31:11.994Z,21.10
2019-05-01T11:32:32.052Z,21.20
2019-05-01T11:33:52.070Z,21.20
2019-05-01T11:35:03.380Z,21.30
2019-05-01T11:36:09.874Z,21.30
2019-05-01T11:37:27.026Z,21.50
2019-05-01T11:38:41.139Z,21.60
2019-05-01T11:40:02.386Z,21.60
2019-05-01T11:41:07.665Z,21.60
2019-05-01T11:42:18.551Z,21.60
2019-05-01T11:43:22.697Z,21.70
2019-05-01T11:44:26.269Z,21.80
2019-05-01T11:45:29.873Z,21.80
2019-05-01T11:46:33.444Z,21.90
2019-05-01T11:47:37.054Z,21.80
2019-05-01T11:48:40.622Z,21.70
2019-05-01T11:49:44.188Z,21.80
2019-05-01T11:50:47.789Z,21.80
2019-05-01T11:51:51.362Z,21.80
2019-05-01T11:52:54.936Z,21.90
2019-05-01T11:53:58.551Z,22.20
2019-05-01T11:55:02.125Z,22.30
2019-05-01T11:56:05.734Z,22.20
2019-05-01T11:57:09.318Z,22.20
2019-05-01T11:58:12.889Z,22.30
2019-05-01T11:59:16.471Z,22.40
2019-05-01T12:00:20.878Z,22.30
2019-05-01T12:01:25.256Z,22.40
2019-05-01T12:02:28.826Z,22.40
2019-05-01T12:03:32.623Z,22.40
2019-05-01T12:04:36.231Z,22.60
2019-05-01T12:05:39.848Z,22.80
2019-05-01T12:06:43.407Z,23.00
2019-05-01T12:07:47.074Z,23.00
2019-05-01T12:08:50.582Z,22.80
2019-05-01T12:09:54.153Z,22.60
2019-05-01T12:10:58.279Z,22.30
2019-05-01T12:12:15.729Z,22.20
2019-05-01T12:13:19.303Z,22.30
2019-05-01T12:14:22.873Z,22.40
2019-05-01T12:15:26.445Z,22.30
2019-05-01T12:16:47.906Z,22.00
2019-05-01T12:17:51.518Z,21.60
2019-05-01T12:18:55.150Z,21.30
2019-05-01T12:19:58.713Z,21.40
2019-05-01T12:21:02.285Z,21.70
2019-05-01T12:22:05.972Z,21.90
2019-05-01T12:23:09.535Z,21.90
2019-05-01T12:24:13.106Z,21.80
2019-05-01T12:25:17.039Z,21.80
2019-05-01T12:26:20.597Z,21.90
2019-05-01T12:27:24.228Z,22.10
2019-05-01T12:28:27.827Z,22.20
2019-05-01T12:29:31.393Z,22.30
2019-05-01T12:30:35.006Z,22.30
2019-05-01T12:31:38.598Z,22.30
2019-05-01T12:32:42.149Z,22.30
2019-05-01T12:33:45.785Z,22.40
2019-05-01T12:34:49.357Z,22.40
2019-05-01T12:35:54.627Z,22.60
2019-05-01T12:37:18.067Z,22.70
2019-05-01T12:38:21.631Z,22.70
2019-05-01T12:39:25.211Z,22.60
2019-05-01T12:40:28.824Z,22.50
2019-05-01T12:41:50.066Z,22.60
2019-05-01T12:42:53.662Z,22.80
2019-05-01T12:43:57.230Z,22.80
2019-05-01T12:45:00.803Z,22.80
2019-05-01T12:46:04.559Z,22.90
2019-05-01T12:47:12.271Z,23.10
2019-05-01T12:48:15.904Z,23.10
2019-05-01T12:49:19.502Z,23.20
2019-05-01T12:50:23.314Z,23.30
2019-05-01T12:51:26.887Z,23.40
2019-05-01T12:52:32.126Z,23.40
2019-05-01T12:53:43.223Z,23.20
2019-05-01T12:54:52.082Z,23.30
2019-05-01T12:56:09.306Z,23.20
2019-05-01T12:57:14.046Z,23.10
2019-05-01T12:58:17.654Z,23.00
2019-05-01T12:59:21.223Z,23.10
2019-05-01T13:00:49.347Z,22.90
2019-05-01T13:01:52.914Z,22.90
2019-05-01T13:02:56.526Z,23.10
2019-05-01T13:04:00.174Z,23.00
2019-05-01T13:05:05.391Z,22.90
2019-05-01T13:06:08.957Z,23.00
2019-05-01T13:07:12.664Z,22.90
2019-05-01T13:08:16.258Z,23.00
2019-05-01T13:09:19.831Z,23.00
2019-05-01T13:10:23.386Z,23.30
2019-05-01T13:11:26.957Z,23.60
2019-05-01T13:12:30.558Z,23.60
2019-05-01T13:13:34.169Z,23.70
2019-05-01T13:14:37.734Z,23.70
2019-05-01T13:15:41.342Z,23.40
2019-05-01T13:16:44.907Z,23.20
2019-05-01T13:17:48.474Z,23.20
2019-05-01T13:18:52.050Z,23.20
2019-05-01T13:19:55.663Z,23.20
2019-05-01T13:20:59.239Z,23.40
2019-05-01T13:22:05.298Z,23.60
2019-05-01T13:23:08.019Z,23.70
2019-05-01T13:24:11.582Z,23.80
2019-05-01T13:25:15.189Z,23.90
2019-05-01T13:26:20.396Z,24.20
2019-05-01T13:27:40.754Z,24.30
2019-05-01T13:28:49.086Z,24.20
2019-05-01T13:29:57.207Z,23.90
2019-05-01T13:31:04.969Z,23.80
2019-05-01T13:32:18.794Z,23.50
2019-05-01T13:33:22.394Z,23.30
2019-05-01T13:34:25.981Z,23.30
2019-05-01T13:35:30.673Z,23.30
2019-05-01T13:36:34.363Z,23.10
2019-05-01T13:37:37.929Z,23.10
2019-05-01T13:38:41.503Z,23.10
2019-05-01T13:39:45.147Z,23.10
2019-05-01T13:40:48.720Z,23.10
2019-05-01T13:41:52.314Z,23.30
2019-05-01T13:42:55.886Z,23.50
2019-05-01T13:43:59.457Z,23.70
2019-05-01T13:45:03.094Z,23.80
2019-05-01T13:46:06.797Z,23.70
2019-05-01T13:47:10.411Z,23.60
2019-05-01T13:48:13.976Z,23.80
2019-05-01T13:49:17.542Z,23.90
2019-05-01T13:50:21.180Z,24.10
2019-05-01T13:51:24.786Z,24.00
2019-05-01T13:52:28.358Z,23.70
2019-05-01T13:53:31.934Z,23.70
2019-05-01T13:54:35.495Z,23.70
2019-05-01T13:55:39.060Z,23.70
2019-05-01T13:56:42.733Z,23.70
2019-05-01T13:57:46.343Z,23.70
2019-05-01T13:58:49.916Z,23.90
2019-05-01T13:59:53.478Z,23.80
2019-05-01T14:00:57.118Z,23.90
2019-05-01T14:02:00.686Z,24.00
2019-05-01T14:03:04.275Z,24.20
2019-05-01T14:04:08.718Z,24.20
2019-05-01T14:05:12.622Z,23.90
2019-05-01T14:06:16.228Z,23.80
2019-05-01T14:07:19.972Z,24.00
2019-05-01T14:08:23.540Z,24.10
2019-05-01T14:09:31.450Z,24.00
2019-05-01T14:10:35.052Z,24.00